createdAt,value
2022-12-16T00:01:10.122Z,88.25
2022-12-16T00:03:38.433Z,88.45
2022-12-16T00:06:06.390Z,88.06
2022-12-16T00:08:35.365Z,88.03
2022-12-16T00:11:03.346Z,87.86
2022-12-16T00:13:33.578Z,87.77
2022-12-16T00:16:06.043Z,88.22
2022-12-16T00:18:33.725Z,87.68
2022-12-16T00:21:01.448Z,88.38
2022-12-16T00:23:29.831Z,88.66
2022-12-16T00:25:57.672Z,88.25
2022-12-16T00:28:25.737Z,88.78
2022-12-16T00:30:55.781Z,88.13
2022-12-16T00:33:24.849Z,88.17
2022-12-16T00:35:52.639Z,87.83
2022-12-16T00:38:21.454Z,87.82
2022-12-16T00:40:49.120Z,88.09
2022-12-16T00:43:16.991Z,88.06
2022-12-16T00:45:46.164Z,87.46
2022-12-16T00:48:15.083Z,87.23
2022-12-16T00:50:42.795Z,86.94
2022-12-16T00:53:10.293Z,87.22
2022-12-16T00:55:37.774Z,87.22
2022-12-16T00:58:05.887Z,86.85
2022-12-16T01:00:33.472Z,86.70
2022-12-16T01:03:01.407Z,86.57
2022-12-16T01:05:30.770Z,86.93
2022-12-16T01:07:58.659Z,86.98
2022-12-16T01:10:26.725Z,86.67
2022-12-16T01:12:54.255Z,85.94
2022-12-16T01:15:23.014Z,86.81
2022-12-16T01:17:50.587Z,86.38
2022-12-16T01:20:18.323Z,86.18
2022-12-16T01:22:47.451Z,86.29
2022-12-16T01:25:15.396Z,86.46
2022-12-16T01:27:42.979Z,85.70
2022-12-16T01:30:11.882Z,86.04
2022-12-16T01:32:39.376Z,86.21
2022-12-16T01:35:18.002Z,86.17
2022-12-16T01:37:52.415Z,86.68
2022-12-16T01:40:24.896Z,86.81
2022-12-16T01:42:52.472Z,86.38
2022-12-16T01:45:33.032Z,86.57
2022-12-16T01:48:04.660Z,86.36
2022-12-16T01:50:32.618Z,86.86
2022-12-16T01:53:03.989Z,86.83
2022-12-16T01:55:34.731Z,86.61
2022-12-16T01:58:04.830Z,86.68
2022-12-16T02:00:32.326Z,86.70
2022-12-16T02:03:00.444Z,86.69
2022-12-16T02:05:29.239Z,86.92
2022-12-16T02:08:02.588Z,86.94
2022-12-16T02:10:39.293Z,87.20
2022-12-16T02:13:12.408Z,87.33
2022-12-16T02:15:43.323Z,87.17
2022-12-16T02:18:18.768Z,87.09
2022-12-16T02:21:10.331Z,86.82
2022-12-16T02:24:05.807Z,86.59
2022-12-16T02:26:51.580Z,86.10
2022-12-16T02:29:34.035Z,86.57
2022-12-16T02:32:10.870Z,86.28
2022-12-16T02:34:42.478Z,86.49
2022-12-16T02:37:15.705Z,86.47
2022-12-16T02:39:49.489Z,86.00
2022-12-16T02:42:21.860Z,86.11
2022-12-16T02:44:56.229Z,85.92
2022-12-16T02:47:25.346Z,86.46
2022-12-16T02:49:53.968Z,86.22
2022-12-16T02:52:23.122Z,86.25
2022-12-16T02:54:53.065Z,86.49
2022-12-16T02:57:46.534Z,86.32
2022-12-16T03:00:15.944Z,86.80
2022-12-16T03:02:50.514Z,86.73
2022-12-16T03:05:22.753Z,86.64
2022-12-16T03:07:50.852Z,87.31
2022-12-16T03:10:20.861Z,87.90
2022-12-16T03:12:48.534Z,88.22
2022-12-16T03:15:18.631Z,87.77
2022-12-16T03:17:48.219Z,88.01
2022-12-16T03:20:18.582Z,88.14
2022-12-16T03:22:47.800Z,88.50
2022-12-16T03:25:16.295Z,88.20
2022-12-16T03:27:50.454Z,87.61
2022-12-16T03:30:19.453Z,87.43
2022-12-16T03:32:53.376Z,87.91
2022-12-16T03:35:23.489Z,87.68
2022-12-16T03:37:53.999Z,87.86
2022-12-16T03:40:22.497Z,87.30
2022-12-16T03:42:50.476Z,86.76
2022-12-16T03:45:20.904Z,87.36
2022-12-16T03:47:51.446Z,86.99
2022-12-16T03:50:20.970Z,86.96
2022-12-16T03:52:48.481Z,86.83
2022-12-16T03:55:16.158Z,86.86
2022-12-16T03:57:43.925Z,87.13
2022-12-16T04:00:12.844Z,87.03
2022-12-16T04:02:40.547Z,87.41
2022-12-16T04:05:10.248Z,87.27
2022-12-16T04:07:37.766Z,87.31
2022-12-16T04:10:07.032Z,86.84
2022-12-16T04:12:52.124Z,87.15
2022-12-16T04:15:36.737Z,87.36
2022-12-16T04:18:21.900Z,87.49
2022-12-16T04:21:11.753Z,87.19
2022-12-16T04:24:04.729Z,87.28
2022-12-16T04:26:52.319Z,87.43
2022-12-16T04:29:19.867Z,87.55
2022-12-16T04:31:47.440Z,87.39
2022-12-16T04:34:26.057Z,87.33
2022-12-16T04:37:12.591Z,87.54
2022-12-16T04:39:57.471Z,87.78
2022-12-16T04:42:42.799Z,87.83
2022-12-16T04:45:28.529Z,87.97
2022-12-16T04:48:13.906Z,87.44
2022-12-16T04:50:59.216Z,87.66
2022-12-16T04:53:46.343Z,88.56
2022-12-16T04:56:31.586Z,88.58
2022-12-16T04:59:17.318Z,88.41
2022-12-16T05:02:02.697Z,88.18
2022-12-16T05:04:47.882Z,88.73
2022-12-16T05:07:37.993Z,89.29
2022-12-16T05:10:26.778Z,89.50
2022-12-16T05:13:12.171Z,90.22
2022-12-16T05:15:58.041Z,90.01
2022-12-16T05:18:43.226Z,90.39
2022-12-16T05:21:28.568Z,90.47
2022-12-16T05:24:13.675Z,90.26
2022-12-16T05:27:00.218Z,91.03
2022-12-16T05:29:45.409Z,91.92
2022-12-16T05:32:30.612Z,92.36
2022-12-16T05:35:15.886Z,92.85
2022-12-16T05:38:00.996Z,92.38
2022-12-16T05:40:46.278Z,91.39
2022-12-16T05:43:33.160Z,90.56
2022-12-16T05:46:18.792Z,90.56
2022-12-16T05:49:03.928Z,89.69
2022-12-16T05:51:49.226Z,89.63
2022-12-16T05:54:34.462Z,89.84
2022-12-16T05:57:19.616Z,89.43
2022-12-16T06:00:05.151Z,89.79
2022-12-16T06:02:50.465Z,89.71
2022-12-16T06:05:35.536Z,89.25
2022-12-16T06:08:20.811Z,88.87
2022-12-16T06:11:06.024Z,89.51
2022-12-16T06:13:51.274Z,89.31
2022-12-16T06:16:37.878Z,89.28
2022-12-16T06:19:23.219Z,90.28
2022-12-16T06:22:08.581Z,89.63
2022-12-16T06:24:53.788Z,89.81
2022-12-16T06:27:39.064Z,89.49
2022-12-16T06:30:25.230Z,89.58
2022-12-16T06:33:11.791Z,88.98
2022-12-16T06:36:02.392Z,89.65
2022-12-16T06:38:47.678Z,89.50
2022-12-16T06:41:32.871Z,89.79
2022-12-16T06:44:18.206Z,89.59
2022-12-16T06:47:03.322Z,89.22
2022-12-16T06:49:49.984Z,89.00
2022-12-16T06:52:35.007Z,88.77
2022-12-16T06:55:20.228Z,88.32
2022-12-16T06:58:09.869Z,88.06
2022-12-16T07:00:55.499Z,87.82
2022-12-16T07:03:40.867Z,87.70
2022-12-16T07:06:27.807Z,87.81
2022-12-16T07:09:13.240Z,87.57
2022-12-16T07:12:09.963Z,87.50
2022-12-16T07:14:54.747Z,87.48
2022-12-16T07:17:40.144Z,87.40
2022-12-16T07:20:26.005Z,87.41
2022-12-16T07:23:19.338Z,87.32
2022-12-16T07:26:04.786Z,87.34
2022-12-16T07:28:50.050Z,87.22
2022-12-16T07:31:35.417Z,87.27
2022-12-16T07:34:22.807Z,87.28
2022-12-16T07:37:08.095Z,87.07
2022-12-16T07:39:55.513Z,87.54
2022-12-16T07:42:41.026Z,87.29
2022-12-16T07:45:27.206Z,87.17
2022-12-16T07:48:12.486Z,86.96
2022-12-16T07:50:57.891Z,87.17
2022-12-16T07:53:57.614Z,86.92
2022-12-16T07:56:44.689Z,87.08
2022-12-16T07:59:29.643Z,86.92
2022-12-16T08:02:15.566Z,86.76
2022-12-16T08:05:00.980Z,87.05
2022-12-16T08:07:46.147Z,86.86
2022-12-16T08:10:31.355Z,87.17
2022-12-16T08:13:25.594Z,87.09
2022-12-16T08:16:11.645Z,87.27
2022-12-16T08:18:56.974Z,86.96
2022-12-16T08:21:42.035Z,87.34
2022-12-16T08:24:27.360Z,87.06
2022-12-16T08:27:12.834Z,87.17
2022-12-16T08:29:59.685Z,87.41
2022-12-16T08:32:44.702Z,87.25
2022-12-16T08:35:29.950Z,87.28
2022-12-16T08:38:15.404Z,87.33
2022-12-16T08:41:01.114Z,87.54
2022-12-16T08:43:46.439Z,87.19
2022-12-16T08:46:33.123Z,87.16
2022-12-16T08:49:18.586Z,87.39
2022-12-16T08:52:03.781Z,87.44
2022-12-16T08:54:49.140Z,87.76
2022-12-16T08:57:34.478Z,87.80
2022-12-16T09:00:19.707Z,87.89
2022-12-16T09:03:06.382Z,88.01
2022-12-16T09:05:51.470Z,88.32
2022-12-16T09:08:36.759Z,88.44
2022-12-16T09:11:21.963Z,88.38
2022-12-16T09:14:07.135Z,88.29
2022-12-16T09:16:52.381Z,87.90
2022-12-16T09:19:39.637Z,87.53
2022-12-16T09:22:24.952Z,87.71
2022-12-16T09:25:10.170Z,87.67
2022-12-16T09:27:55.395Z,87.85
2022-12-16T09:30:40.920Z,87.77
2022-12-16T09:33:26.135Z,87.90
2022-12-16T09:36:12.758Z,88.12
2022-12-16T09:38:57.870Z,88.03
2022-12-16T09:41:49.585Z,88.30
2022-12-16T09:44:40.745Z,88.77
2022-12-16T09:47:31.466Z,88.84
2022-12-16T09:50:16.864Z,89.64
2022-12-16T09:53:06.468Z,89.93
2022-12-16T09:55:53.232Z,90.59
2022-12-16T09:58:39.383Z,90.79
2022-12-16T10:01:25.134Z,91.05
2022-12-16T10:04:10.489Z,90.65
2022-12-16T10:07:00.965Z,91.57
2022-12-16T10:09:51.250Z,91.76
2022-12-16T10:12:42.544Z,92.19
2022-12-16T10:15:35.513Z,90.95
2022-12-16T10:18:24.627Z,90.85
2022-12-16T10:21:10.990Z,91.28
2022-12-16T10:24:01.253Z,90.89
2022-12-16T10:27:05.270Z,91.02
2022-12-16T10:29:51.556Z,91.42
2022-12-16T10:32:38.842Z,91.41
2022-12-16T10:35:38.416Z,92.23
2022-12-16T10:38:25.627Z,92.33
2022-12-16T10:41:10.895Z,92.30
2022-12-16T10:44:01.366Z,92.82
2022-12-16T10:46:48.316Z,92.76
2022-12-16T10:49:34.534Z,92.82
2022-12-16T10:52:20.360Z,93.02
2022-12-16T10:55:09.391Z,93.08
2022-12-16T10:58:01.545Z,93.88
2022-12-16T11:01:02.512Z,93.66
2022-12-16T11:03:49.414Z,93.66
2022-12-16T11:06:38.040Z,93.81
2022-12-16T11:09:44.299Z,93.88
2022-12-16T11:12:40.199Z,94.19
2022-12-16T11:15:42.698Z,94.09
2022-12-16T11:18:31.027Z,94.38
2022-12-16T11:21:30.787Z,94.13
2022-12-16T11:24:33.512Z,94.42
2022-12-16T11:27:19.859Z,95.19
2022-12-16T11:30:12.663Z,94.76
2022-12-16T11:33:00.760Z,95.33
2022-12-16T11:35:49.704Z,95.17
2022-12-16T11:38:40.079Z,95.32
2022-12-16T11:41:26.473Z,95.63
2022-12-16T11:44:12.660Z,95.66
2022-12-16T11:46:57.903Z,96.40
2022-12-16T11:49:46.027Z,96.10
2022-12-16T11:52:37.486Z,96.15
2022-12-16T11:56:04.951Z,96.50
2022-12-16T11:58:47.859Z,96.62
2022-12-16T12:01:45.567Z,96.77
2022-12-16T12:04:31.856Z,97.18
2022-12-16T12:07:44.469Z,97.11
2022-12-16T12:11:02.623Z,97.31
2022-12-16T12:13:59.212Z,97.53
2022-12-16T12:16:50.251Z,97.84
2022-12-16T12:19:43.815Z,97.79
2022-12-16T12:22:33.841Z,97.25
2022-12-16T12:25:26.358Z,97.43
2022-12-16T12:28:16.125Z,97.31
2022-12-16T12:31:08.984Z,97.23
2022-12-16T12:33:59.761Z,96.76
2022-12-16T12:36:50.635Z,97.16
2022-12-16T12:39:41.183Z,96.45
2022-12-16T12:42:38.489Z,96.28
2022-12-16T12:45:41.395Z,96.42
2022-12-16T12:48:31.904Z,97.33
2022-12-16T12:51:23.867Z,97.80
2022-12-16T12:54:14.280Z,97.73
2022-12-16T12:57:06.518Z,97.78
2022-12-16T13:00:02.609Z,97.79
2022-12-16T13:02:52.489Z,98.43
2022-12-16T13:05:37.880Z,98.22
2022-12-16T13:09:01.109Z,98.98
2022-12-16T13:11:46.758Z,98.62
2022-12-16T13:15:09.770Z,98.88
2022-12-16T13:18:28.284Z,98.61
2022-12-16T13:21:15.774Z,98.66
2022-12-16T13:24:02.119Z,98.91
2022-12-16T13:26:47.976Z,98.27
2022-12-16T13:29:38.998Z,98.35
2022-12-16T13:32:36.614Z,98.61
2022-12-16T13:35:23.725Z,98.79
2022-12-16T13:38:14.563Z,98.68
2022-12-16T13:41:17.930Z,98.63
2022-12-16T13:44:06.369Z,98.87
2022-12-16T13:46:59.757Z,98.51
2022-12-16T13:50:03.530Z,98.74
2022-12-16T13:53:13.045Z,98.58
2022-12-16T13:56:03.948Z,98.90
2022-12-16T13:58:54.893Z,98.61
2022-12-16T14:01:42.936Z,98.68
2022-12-16T14:04:28.512Z,98.48
2022-12-16T14:07:14.785Z,99.09
2022-12-16T14:10:00.986Z,98.72
2022-12-16T14:13:07.156Z,98.42
2022-12-16T14:15:57.065Z,98.76
2022-12-16T14:18:49.886Z,98.55
2022-12-16T14:21:38.875Z,98.82
2022-12-16T14:24:29.310Z,98.75
2022-12-16T14:27:14.708Z,98.44
2022-12-16T14:30:02.700Z,98.38
2022-12-16T14:32:49.671Z,98.46
2022-12-16T14:35:36.614Z,98.35
2022-12-16T14:38:43.746Z,98.46
2022-12-16T14:41:30.482Z,98.20
2022-12-16T14:44:15.683Z,98.79
2022-12-16T14:47:07.845Z,99.32
2022-12-16T14:49:53.087Z,99.32
2022-12-16T14:52:40.824Z,99.45
2022-12-16T14:55:31.247Z,99.29
2022-12-16T14:58:24.675Z,99.55
2022-12-16T15:01:15.555Z,99.41
2022-12-16T15:04:04.191Z,99.22
2022-12-16T15:06:52.862Z,99.40
2022-12-16T15:09:44.970Z,99.33
2022-12-16T15:12:30.974Z,98.80
2022-12-16T15:15:16.760Z,99.23
2022-12-16T15:18:08.914Z,98.88
2022-12-16T15:20:56.805Z,99.20
2022-12-16T15:23:43.283Z,98.83
2022-12-16T15:26:35.444Z,98.83
2022-12-16T15:29:20.805Z,98.22
2022-12-16T15:32:06.039Z,97.98
2022-12-16T15:35:03.504Z,98.15
2022-12-16T15:37:56.970Z,98.42
2022-12-16T15:40:48.122Z,98.07
2022-12-16T15:43:44.135Z,98.18
2022-12-16T15:46:37.073Z,97.98
2022-12-16T15:49:22.349Z,98.04
2022-12-16T15:52:08.904Z,97.99
2022-12-16T15:55:09.826Z,98.07
2022-12-16T15:57:55.794Z,98.16
2022-12-16T16:00:42.988Z,97.51
2022-12-16T16:03:38.793Z,97.70
2022-12-16T16:06:33.547Z,97.98
2022-12-16T16:09:18.643Z,97.99
2022-12-16T16:12:04.935Z,98.17
2022-12-16T16:14:50.665Z,98.26
2022-12-16T16:17:39.952Z,98.26
2022-12-16T16:20:28.198Z,98.50
2022-12-16T16:23:13.596Z,98.38
2022-12-16T16:26:03.659Z,98.19
2022-12-16T16:28:49.466Z,98.29
2022-12-16T16:31:34.771Z,98.04
2022-12-16T16:34:20.117Z,97.91
2022-12-16T16:37:05.787Z,97.81
2022-12-16T16:39:51.110Z,98.06
2022-12-16T16:42:36.427Z,97.83
2022-12-16T16:45:26.007Z,98.01
2022-12-16T16:48:12.440Z,97.94
2022-12-16T16:50:57.625Z,97.83
2022-12-16T16:53:42.817Z,97.66
2022-12-16T16:56:29.123Z,97.93
2022-12-16T16:59:13.984Z,98.12
2022-12-16T17:02:00.625Z,98.22
2022-12-16T17:04:45.683Z,97.67
2022-12-16T17:07:49.310Z,98.34
2022-12-16T17:10:37.572Z,97.92
2022-12-16T17:13:22.545Z,98.09
2022-12-16T17:16:08.006Z,97.65
2022-12-16T17:18:54.718Z,97.75
2022-12-16T17:21:39.932Z,98.01
2022-12-16T17:24:25.202Z,98.30
2022-12-16T17:27:10.382Z,98.05
2022-12-16T17:29:55.685Z,97.98
2022-12-16T17:32:40.195Z,98.06
2022-12-16T17:35:27.340Z,97.48
2022-12-16T17:38:12.635Z,97.44
2022-12-16T17:40:57.876Z,98.06
2022-12-16T17:43:43.099Z,97.52
2022-12-16T17:46:29.860Z,97.79
2022-12-16T17:49:16.118Z,97.69
2022-12-16T17:52:02.575Z,97.61
2022-12-16T17:54:47.780Z,97.73
2022-12-16T17:57:32.988Z,97.51
2022-12-16T18:00:18.361Z,97.60
2022-12-16T18:03:03.661Z,97.59
2022-12-16T18:05:49.175Z,97.92
2022-12-16T18:08:35.594Z,97.65
2022-12-16T18:11:20.773Z,97.28
2022-12-16T18:14:06.028Z,97.31
2022-12-16T18:16:51.114Z,98.10
2022-12-16T18:19:36.385Z,97.75
2022-12-16T18:22:21.446Z,98.08
2022-12-16T18:25:07.951Z,98.02
2022-12-16T18:27:54.271Z,98.23
2022-12-16T18:30:39.426Z,98.39
2022-12-16T18:33:24.706Z,98.38
2022-12-16T18:36:09.946Z,98.00
2022-12-16T18:38:55.124Z,98.25
2022-12-16T18:41:41.802Z,97.90
2022-12-16T18:44:28.938Z,97.75
2022-12-16T18:47:14.275Z,97.92
2022-12-16T18:49:59.564Z,98.15
2022-12-16T18:52:44.809Z,98.23
2022-12-16T18:55:30.042Z,97.98
2022-12-16T18:58:42.516Z,98.38
2022-12-16T19:01:22.548Z,98.14
2022-12-16T19:04:07.602Z,98.53
2022-12-16T19:06:52.803Z,98.10
2022-12-16T19:09:40.353Z,98.05
2022-12-16T19:12:25.660Z,98.14
2022-12-16T19:15:12.050Z,98.75
2022-12-16T19:17:57.302Z,98.44
2022-12-16T19:20:43.012Z,97.87
2022-12-16T19:23:28.263Z,98.21
2022-12-16T19:26:15.151Z,97.96
2022-12-16T19:29:00.418Z,97.52
2022-12-16T19:31:52.271Z,97.72
2022-12-16T19:34:41.215Z,97.59
2022-12-16T19:37:26.438Z,98.10
2022-12-16T19:40:11.611Z,97.67
2022-12-16T19:42:57.084Z,97.78
2022-12-16T19:45:42.112Z,97.36
2022-12-16T19:48:28.611Z,97.50
2022-12-16T19:51:15.287Z,97.06
2022-12-16T19:54:00.742Z,97.22
2022-12-16T19:56:46.334Z,97.46
2022-12-16T19:59:31.586Z,97.18
2022-12-16T20:02:16.837Z,97.09
2022-12-16T20:05:03.343Z,96.88
2022-12-16T20:07:48.506Z,96.97
2022-12-16T20:10:33.774Z,96.78
2022-12-16T20:13:24.835Z,97.06
2022-12-16T20:16:19.410Z,97.18
2022-12-16T20:19:04.733Z,96.99
2022-12-16T20:21:54.731Z,97.05
2022-12-16T20:24:41.291Z,97.32
2022-12-16T20:27:26.714Z,97.06
2022-12-16T20:30:11.827Z,97.15
2022-12-16T20:32:53.491Z,96.57
2022-12-16T20:35:41.443Z,96.98
2022-12-16T20:38:27.960Z,97.19
2022-12-16T20:41:14.227Z,96.86
2022-12-16T20:43:59.404Z,96.99
2022-12-16T20:46:45.796Z,97.24
2022-12-16T20:49:31.015Z,96.93
2022-12-16T20:52:16.158Z,97.14
2022-12-16T20:55:02.766Z,96.89
2022-12-16T20:57:47.963Z,96.67
2022-12-16T21:00:33.698Z,96.60
2022-12-16T21:03:18.814Z,96.26
2022-12-16T21:06:03.967Z,96.85
2022-12-16T21:08:49.442Z,96.82
2022-12-16T21:11:35.799Z,97.23
2022-12-16T21:14:21.102Z,96.82
2022-12-16T21:17:06.259Z,96.71
2022-12-16T21:19:51.584Z,96.47
2022-12-16T21:22:36.974Z,96.69
2022-12-16T21:25:24.836Z,96.57
2022-12-16T21:28:14.564Z,96.28
2022-12-16T21:30:59.883Z,95.84
2022-12-16T21:33:45.413Z,95.88
2022-12-16T21:36:30.882Z,95.95
2022-12-16T21:39:16.226Z,95.60
2022-12-16T21:42:01.580Z,95.29
2022-12-16T21:44:48.063Z,95.69
2022-12-16T21:47:33.125Z,94.93
2022-12-16T21:50:18.489Z,94.44
2022-12-16T21:53:06.254Z,94.84
2022-12-16T21:55:51.335Z,95.08
2022-12-16T21:58:36.292Z,94.57
2022-12-16T22:01:22.780Z,94.27
2022-12-16T22:04:07.916Z,93.90
2022-12-16T22:06:53.162Z,93.25
2022-12-16T22:09:38.350Z,93.36
2022-12-16T22:12:23.653Z,93.46
2022-12-16T22:15:08.771Z,93.58
2022-12-16T22:21:00.311Z,93.52
2022-12-16T22:23:47.070Z,93.15
2022-12-16T22:26:32.252Z,93.45
2022-12-16T22:29:17.726Z,93.07
2022-12-16T22:32:02.885Z,93.03
2022-12-16T22:34:49.471Z,93.24
2022-12-16T22:36:22.271Z,93.09
2022-12-16T22:37:34.636Z,92.97
2022-12-16T22:40:19.993Z,93.07
2022-12-16T22:43:06.372Z,93.16
2022-12-16T22:45:51.464Z,92.82
2022-12-16T22:48:37.305Z,93.15
2022-12-16T22:51:28.526Z,93.22
2022-12-16T22:54:13.807Z,93.03
2022-12-16T22:56:59.242Z,92.84
2022-12-16T22:59:44.491Z,92.83
2022-12-16T23:02:29.719Z,92.65
2022-12-16T23:05:22.317Z,92.30
2022-12-16T23:08:11.992Z,92.21
2022-12-16T23:10:57.168Z,92.40
2022-12-16T23:13:44.137Z,91.81
2022-12-16T23:16:29.265Z,92.25
2022-12-16T23:19:14.550Z,92.16
2022-12-16T23:21:59.786Z,92.57
2022-12-16T23:24:46.347Z,92.43
2022-12-16T23:27:43.035Z,92.42
2022-12-16T23:30:29.565Z,92.33
2022-12-16T23:33:15.786Z,92.48
2022-12-16T23:36:12.526Z,92.63
2022-12-16T23:39:05.842Z,92.33
2022-12-16T23:41:52.336Z,92.44
2022-12-16T23:44:37.591Z,92.17
2022-12-16T23:47:22.942Z,91.19
2022-12-16T23:50:11.143Z,91.20
2022-12-16T23:52:59.430Z,91.56
2022-12-16T23:55:44.838Z,91.41
2022-12-16T23:58:31.837Z,91.76
